Latest Weather Observations for Holsworthy

IDN60901

Issued at 7:41 pm EST Thursday 16 August 2018 (issued every 10 minutes, with the page automatically refreshed every 10 minutes)

About weather observations | Map of Sydney area stations | Latest observations for Sydney area | Other Formats
Station Details ID: 066161 Name: HOLSWORTHY AERODROME AWS Lat: -33.99 Lon: 150.95 Height: 68.16 m
Data from the previous 72 hours. | See also: Recent months at Holsworthy
Date/Time
EST
Temp
°C
App
Temp
°C
Dew
Point
°C
Rel
Hum
%
Delta-T
°C
Wind Press
QNH
hPa
Press
MSL
hPa
Rain since
9am
mm
Dir  Spd
km/h
Gust
km/h
Spd
kts
Gust
kts
16/07:30pm 13.6 7.6 -2.8 32 6.4 SW 19 28 10 15 1013.0 1013.1 0.0
16/07:00pm 14.2 8.6 -3.1 30 6.8 SW 17 28 9 15 1012.6 1012.7 0.0
16/06:30pm 14.5 9.5 -4.2 27 7.2 SW 13 20 7 11 1012.2 1012.3 0.0
16/06:00pm 15.2 10.2 -4.7 25 7.6 SW 13 17 7 9 1011.7 1011.8 0.0
16/05:30pm 16.3 11.3 -4.3 24 8.1 SW 13 20 7 11 1011.2 1011.2 0.0
16/05:00pm 17.6 11.8 -4.3 22 8.7 SW 17 26 9 14 1010.8 1010.8 0.0
16/04:30pm 18.2 11.1 -4.5 21 9.0 SW 24 32 13 17 1010.6 1010.6 0.0
16/04:00pm 18.9 12.3 -3.3 22 9.1 WSW 22 30 12 16 1010.6 1010.6 0.0
16/03:30pm 19.1 11.7 -3.7 21 9.3 WSW 26 39 14 21 1010.3 1010.3 0.0
16/03:00pm 19.5 11.8 -2.8 22 9.3 SW 28 41 15 22 1010.3 1010.3 0.0
16/02:30pm 19.5 12.0 -1.6 24 9.0 WSW 28 44 15 24 1009.9 1009.9 0.0
16/02:00pm 19.8 11.6 -1.3 24 9.1 WSW 32 50 17 27 1009.8 1009.8 0.0
16/01:39pm 19.3 11.4 -1.7 24 8.9 WSW 30 48 16 26 1009.6 1009.6 0.0
16/01:30pm 19.5 12.4 -1.0 25 8.9 WSW 26 41 14 22 1009.7 1009.7 0.0
16/01:03pm 19.7 12.4 -0.3 26 8.8 WSW 28 46 15 25 1009.8 1009.8 0.0
16/01:00pm 19.3 11.1 -1.2 25 8.8 WSW 32 46 17 25 1009.9 1009.9 0.0
16/12:30pm 19.7 12.9 0.7 28 8.5 WSW 26 43 14 23 1010.1 1010.1 0.0
16/12:00pm 19.6 12.9 1.6 30 8.2 WSW 26 37 14 20 1010.5 1010.5 0.0
16/11:30am 19.3 13.0 1.8 31 8.0 SW 24 37 13 20 1010.9 1010.9 0.0
16/11:00am 19.2 13.7 1.7 31 8.0 SW 20 32 11 17 1011.1 1011.1 0.0
16/10:30am 19.1 13.6 2.0 32 7.8 WSW 20 30 11 16 1011.3 1011.3 0.0
16/10:00am 18.4 12.2 2.3 34 7.4 SW 24 32 13 17 1011.4 1011.4 0.0
16/09:30am 17.7 11.9 2.1 35 7.1 WSW 22 35 12 19 1011.3 1011.3 0.0
16/09:00am 17.2 11.1 2.8 38 6.6 WSW 24 39 13 21 1011.0 1011.0 0.0
16/08:30am 16.4 11.8 3.5 42 6.0 SW 17 32 9 17 1010.8 1010.8 0.0
16/08:00am 14.8 10.8 2.7 44 5.4 SW 13 20 7 11 1010.6 1010.6 0.0
16/07:30am 13.4 9.1 1.1 43 5.3 SW 13 17 7 9 1010.4 1010.4 0.0
16/07:00am 14.3 10.2 -0.2 37 6.1 SSW 11 20 6 11 1010.2 1010.2 0.0
16/06:30am 15.4 10.4 -1.2 32 6.9 SSW 15 22 8 12 1009.5 1009.5 0.0
16/06:00am 15.5 10.8 -2.0 30 7.1 SW 13 20 7 11 1009.1 1009.1 0.0
16/05:30am 15.0 10.4 -1.1 33 6.7 SSW 13 19 7 10 1008.7 1008.7 0.0
16/05:23am 14.2 9.8 0.1 38 5.9 S 13 19 7 10 1008.7 1008.7 0.0
16/05:00am 8.8 5.1 -2.5 45 4.2 SSW 7 15 4 8 1008.6 1008.6 0.0
16/04:30am 10.8 7.2 -2.2 40 5.0 ESE 7 13 4 7 1008.2 1008.2 0.0
16/04:00am 12.2 7.9 -1.7 38 5.5 SE 11 15 6 8 1008.0 1008.0 0.0
16/03:30am 11.6 7.6 -2.6 37 5.5 ESE 9 9 5 5 1007.7 1007.7 0.0
16/03:00am 14.2 10.7 -3.1 30 6.8 ESE 6 9 3 5 1007.6 1007.6 0.0
16/02:30am 15.6 10.4 -2.8 28 7.4 E 15 19 8 10 1007.7 1007.7 0.0
16/02:00am 13.8 10.7 -3.0 31 6.6 NNE 4 9 2 5 1007.7 1007.7 0.0
16/01:30am 16.2 12.1 -3.3 26 7.8 N 9 17 5 9 1008.0 1008.0 0.0
16/01:00am 16.3 11.7 -3.7 25 7.9 N 11 15 6 8 1008.1 1008.1 0.0
16/12:30am 18.7 13.4 -4.0 21 9.2 NW 15 35 8 19 1008.1 1008.1 0.0
16/12:00am 16.9 12.7 -3.8 24 8.3 NW 9 13 5 7 1008.5 1008.5 0.0
 
Date/Time
EST
Temp
°C
App
Temp
°C
Dew
Point
°C
Rel
Hum
%
Delta-T
°C
Wind Press
QNH
hPa
Press
MSL
hPa
Rain since
9am
mm
Dir  Spd
km/h
Gust
km/h
Spd
kts
Gust
kts
15/11:30pm 18.5 14.3 -3.6 22 9.0 NNW 9 15 5 8 1008.8 1008.8 0.0
15/11:00pm 18.6 14.1 -3.5 22 9.0 NNW 11 20 6 11 1008.6 1008.6 0.0
15/10:30pm 19.2 14.3 -3.6 21 9.3 NW 13 19 7 10 1008.7 1008.7 0.0
15/10:00pm 19.1 14.2 -3.1 22 9.2 NW 13 20 7 11 1008.8 1008.8 0.0
15/09:30pm 18.6 14.5 -2.9 23 8.9 NNW 9 13 5 7 1008.8 1008.8 0.0
15/09:00pm 18.8 15.1 -2.7 23 8.9 NNW 7 19 4 10 1009.2 1009.2 0.0
15/08:30pm 19.2 15.2 -2.4 23 9.1 NNW 9 15 5 8 1009.1 1009.1 0.0
15/08:00pm 19.0 14.3 -2.0 24 8.9 NNW 13 20 7 11 1009.1 1009.1 0.0
15/07:30pm 18.8 14.7 -3.3 22 9.1 N 9 13 5 7 1009.5 1009.5 0.0
15/07:00pm 19.3 15.5 -3.5 21 9.4 NNW 7 13 4 7 1009.4 1009.4 0.0
15/06:30pm 19.9 15.3 -3.7 20 9.7 NNW 11 19 6 10 1008.9 1008.9 0.0
15/06:00pm 20.8 15.9 -3.0 20 10.0 NW 13 20 7 11 1008.9 1008.9 0.0
15/05:30pm 22.0 16.0 -3.4 18 10.7 WNW 19 33 10 18 1008.5 1008.5 0.0
15/05:00pm 22.9 16.6 -4.2 16 11.4 WNW 20 33 11 18 1008.2 1008.2 0.0
15/04:32pm 23.5 15.6 -4.6 15 11.7 WNW 28 50 15 27 1007.8 1007.8 0.0
15/04:30pm 23.5 16.0 -4.6 15 11.7 WNW 26 50 14 27 1007.8 1007.8 0.0
15/04:01pm 24.1 16.2 -5.0 14 12.1 WNW 28 46 15 25 1007.6 1007.6 0.0
15/04:00pm 24.0 15.7 -5.1 14 12.1 WNW 30 46 16 25 1007.6 1007.6 0.0
15/03:42pm 24.4 16.4 -5.8 13 12.4 NW 28 46 15 25 1007.8 1007.8 0.0
15/03:30pm 24.8 17.2 -5.5 13 12.6 WNW 26 41 14 22 1007.9 1007.9 0.0
15/03:00pm 24.8 16.4 -5.5 13 12.6 WNW 30 50 16 27 1007.9 1007.9 0.0
15/02:52pm 24.8 16.7 -6.5 12 12.8 WNW 28 50 15 27 1007.8 1007.8 0.0
15/02:30pm 25.1 17.5 -5.2 13 12.7 WNW 26 46 14 25 1008.0 1008.0 0.0
15/02:00pm 24.1 15.5 -4.1 15 12.0 WNW 32 54 17 29 1008.2 1008.2 0.0
15/01:30pm 24.4 15.6 -3.9 15 12.1 WNW 33 59 18 32 1008.8 1008.8 0.0
15/01:00pm 23.6 14.8 -4.5 15 11.8 WNW 33 57 18 31 1008.9 1008.9 0.0
15/12:30pm 23.3 14.5 -3.9 16 11.5 WNW 33 57 18 31 1009.5 1009.5 0.0
15/12:10pm 22.9 15.1 -4.2 16 11.3 WNW 28 57 15 31 1010.0 1010.0 0.0
15/12:00pm 23.4 16.4 -3.8 16 11.5 WNW 24 43 13 23 1010.4 1010.4 0.0
15/11:30am 22.2 14.8 -4.0 17 10.9 WNW 26 41 14 22 1010.9 1010.9 0.0
15/11:26am 22.5 14.6 -4.5 16 11.2 WNW 28 46 15 25 1011.0 1011.0 0.0
15/11:00am 21.9 14.8 -4.2 17 10.8 WNW 24 39 13 21 1011.5 1011.5 0.0
15/10:30am 21.1 14.4 -4.1 18 10.4 WNW 22 37 12 20 1012.2 1012.3 0.0
15/10:00am 18.5 13.2 -0.3 28 8.2 NNW 17 28 9 15 1012.6 1012.7 0.0
15/09:30am 16.9 11.7 0.1 32 7.3 NNW 17 22 9 12 1013.1 1013.2 0.0
15/09:00am 15.3 10.7 1.8 40 6.0 NNW 15 20 8 11 1013.7 1013.8 0.0
15/08:30am 13.6 9.9 2.5 47 4.9 NW 11 17 6 9 1014.1 1014.2 0.0
15/08:00am 11.2 8.0 2.8 56 3.7 NW 9 19 5 10 1014.2 1014.3 0.0
15/07:30am 8.4 4.7 2.2 65 2.6 WSW 11 13 6 7 1014.1 1014.2 0.0
15/07:00am 7.5 4.2 2.2 69 2.2 WSW 9 13 5 7 1014.0 1014.1 0.0
15/06:30am 7.1 4.0 1.4 67 2.3 WSW 7 9 4 5 1013.7 1013.8 0.0
15/06:00am 8.0 4.6 1.8 65 2.6 WNW 9 15 5 8 1013.8 1013.9 0.0
15/05:30am 7.4 4.0 1.7 67 2.3 W 9 11 5 6 1013.9 1014.0 0.0
15/05:00am 7.0 3.6 1.7 69 2.2 WSW 9 11 5 6 1013.8 1013.9 0.0
15/04:30am 7.7 3.9 2.0 67 2.4 W 11 15 6 8 1014.0 1014.1 0.0
15/04:00am 7.7 4.3 2.0 67 2.4 W 9 13 5 7 1014.1 1014.2 0.0
15/03:30am 7.4 3.7 2.1 69 2.2 WSW 11 15 6 8 1014.6 1014.6 0.0
15/03:00am 8.0 4.7 2.5 68 2.3 W 9 15 5 8 1014.9 1014.9 0.0
15/02:30am 7.6 4.6 1.9 67 2.3 W 7 9 4 5 1015.4 1015.4 0.0
15/02:00am 7.7 4.9 1.8 66 2.4 WNW 6 9 3 5 1016.0 1016.0 0.0
15/01:30am 8.9 5.6 2.3 63 2.8 WSW 9 11 5 6 1016.3 1016.3 0.0
15/01:00am 9.2 5.9 2.3 62 2.9 WSW 9 11 5 6 1016.7 1016.7 0.0
15/12:30am 9.1 5.3 2.0 61 3.0 W 11 13 6 7 1017.2 1017.2 0.0
15/12:00am 9.1 6.3 1.8 60 3.0 WNW 6 7 3 4 1017.6 1017.6 0.0
 
Date/Time
EST
Temp
°C
App
Temp
°C
Dew
Point
°C
Rel
Hum
%
Delta-T
°C
Wind Press
QNH
hPa
Press
MSL
hPa
Rain since
9am
mm
Dir  Spd
km/h
Gust
km/h
Spd
kts
Gust
kts
14/11:30pm 10.2 7.3 1.6 55 3.6 WNW 6 7 3 4 1017.8 1017.8 0.0
14/11:00pm 10.8 7.9 1.6 53 3.9 WNW 6 9 3 5 1018.1 1018.1 0.0
14/10:30pm 12.2 8.4 1.5 48 4.6 SW 11 15 6 8 1018.2 1018.2 0.0
14/10:00pm 12.8 9.0 1.8 47 4.7 SW 11 20 6 11 1018.4 1018.4 0.0
14/09:30pm 12.8 9.1 2.1 48 4.7 SW 11 13 6 7 1018.5 1018.5 0.0
14/09:00pm 13.6 9.8 1.9 45 5.1 SW 11 15 6 8 1018.7 1018.7 0.0
14/08:30pm 14.9 11.1 1.8 41 5.8 SW 11 13 6 7 1018.6 1018.6 0.0
14/08:00pm 15.5 11.9 2.7 42 5.8 SW 11 15 6 8 1018.6 1018.6 0.0
14/07:30pm 14.9 11.6 4.3 49 4.9 SW 11 15 6 8 1018.5 1018.5 0.0
14/07:00pm 13.2 10.6 3.0 50 4.5 SW 6 11 3 6 1018.4 1018.4 0.0
14/06:30pm 16.7 14.4 4.7 45 5.7 E 6 7 3 4 1018.0 1018.0 0.0
14/06:00pm 17.7 14.8 1.2 33 7.3 NNE 6 11 3 6 1017.8 1017.8 0.0
14/05:30pm 19.8 16.8 0.8 28 8.5 NNW 6 7 3 4 1017.6 1017.6 0.0
14/05:00pm 21.1 17.5 0.9 26 9.2 NNW 9 15 5 8 1017.6 1017.6 0.0
14/04:30pm 21.8 17.5 0.9 25 9.6 N 13 17 7 9 1017.5 1017.5 0.0
14/04:00pm 21.9 17.7 1.6 26 9.4 N 13 19 7 10 1017.6 1017.6 0.0
14/03:30pm 21.8 17.2 1.5 26 9.4 N 15 20 8 11 1017.7 1017.7 0.0
14/03:00pm 22.0 17.8 1.6 26 9.5 N 13 17 7 9 1017.9 1017.9 0.0
14/02:30pm 21.8 17.7 2.0 27 9.3 NNW 13 20 7 11 1018.2 1018.2 0.0
14/02:00pm 20.9 16.8 2.2 29 8.7 N 13 20 7 11 1018.6 1018.6 0.0
14/01:30pm 21.4 18.1 2.6 29 8.9 W 9 17 5 9 1019.2 1019.2 0.0
14/01:00pm 20.1 16.3 2.0 30 8.3 W 11 19 6 10 1019.7 1019.7 0.0
14/12:30pm 19.8 15.7 2.2 31 8.1 WNW 13 20 7 11 1020.5 1020.5 0.0
14/12:00pm 18.9 14.4 2.3 33 7.6 W 15 22 8 12 1021.1 1021.1 0.0
14/11:30am 18.3 13.9 2.6 35 7.2 W 15 26 8 14 1021.9 1021.9 0.0
14/11:00am 17.2 12.7 2.4 37 6.7 W 15 22 8 12 1022.7 1022.7 0.0
14/10:30am 16.1 11.3 2.5 40 6.1 W 17 28 9 15 1023.0 1023.0 0.0
14/10:00am 15.3 11.3 2.8 43 5.6 W 13 19 7 10 1023.1 1023.1 0.0
14/09:30am 14.8 10.9 3.3 46 5.2 W 13 20 7 11 1023.2 1023.2 0.0
14/09:00am 13.8 10.3 3.6 50 4.6 W 11 17 6 9 1023.4 1023.4 0.0
14/08:30am 12.3 9.2 3.5 55 3.9 W 9 13 5 7 1023.2 1023.2 0.0
14/08:00am 10.3 7.7 3.1 61 3.1 W 6 9 3 5 1023.2 1023.2 0.0
14/07:30am 8.2 5.5 2.4 67 2.4 WNW 6 9 3 5 1023.1 1023.1 0.0
14/07:00am 8.6 5.3 2.6 66 2.5 WSW 9 11 5 6 1022.8 1022.8 0.0
14/06:30am 8.3 4.7 3.0 69 2.3 WSW 11 17 6 9 1022.6 1022.6 0.0
14/06:00am 6.6 3.6 2.3 74 1.8 W 7 11 4 6 1022.6 1022.6 0.0
14/05:30am 6.5 3.5 1.8 72 1.9 NW 7 9 4 5 1022.3 1022.3 0.0
14/05:00am 7.7 4.4 2.4 69 2.2 W 9 15 5 8 1022.1 1022.1 0.0
14/04:30am 7.4 4.5 2.7 72 2.0 W 7 11 4 6 1021.9 1021.9 0.0
14/04:00am 6.5 3.8 2.4 75 1.7 WNW 6 9 3 5 1021.9 1021.9 0.0
14/03:30am 7.5 4.7 2.2 69 2.2 SW 6 11 3 6 1021.7 1021.7 0.0
14/03:00am 7.8 4.5 2.7 70 2.1 SW 9 11 5 6 1021.6 1021.6 0.0
14/02:30am 8.1 4.9 3.0 70 2.2 W 9 11 5 6 1021.6 1021.6 0.0
14/02:00am 8.0 5.3 2.9 70 2.1 WSW 6 9 3 5 1022.1 1022.1 0.0
14/01:30am 8.2 4.9 2.7 68 2.3 WSW 9 13 5 7 1022.3 1022.3 0.0
14/01:00am 8.7 5.5 3.3 69 2.3 WSW 9 11 5 6 1022.6 1022.6 0.0
14/12:30am 8.6 6.2 2.4 65 2.6 SW 4 9 2 5 1022.6 1022.6 0.0
14/12:00am 10.1 7.0 3.4 63 2.9 W 9 15 5 8 1022.4 1022.4 0.0
 
Date/Time
EST
Temp
°C
App
Temp
°C
Dew
Point
°C
Rel
Hum
%
Delta-T
°C
Wind Press
QNH
hPa
Press
MSL
hPa
Rain since
9am
mm
Dir  Spd
km/h
Gust
km/h
Spd
kts
Gust
kts
13/11:30pm 10.6 7.5 3.4 61 3.2 W 9 15 5 8 1022.3 1022.3 0.0
13/11:00pm 10.7 7.2 3.5 61 3.2 W 11 15 6 8 1022.4 1022.4 0.0
13/10:30pm 10.9 7.4 3.5 60 3.3 W 11 15 6 8 1022.4 1022.4 0.0
13/10:00pm 11.4 7.9 3.4 58 3.5 W 11 15 6 8 1022.4 1022.4 0.0
13/09:30pm 12.0 8.1 3.5 56 3.8 W 13 17 7 9 1022.3 1022.3 0.0
13/09:00pm 12.0 8.4 3.0 54 3.9 WNW 11 15 6 8 1022.3 1022.3 0.0
13/08:30pm 12.2 8.6 3.2 54 4.0 WNW 11 15 6 8 1022.4 1022.4 0.0
13/08:00pm 12.6 9.8 3.0 52 4.2 WNW 7 15 4 8 1022.2 1022.2 0.0

Latest Capital City Observations: Canberra | Sydney | Melbourne | Brisbane | Adelaide | Perth | Hobart | Darwin

Other Formats:

Comma delimited format used in spreadsheet applications
http://www.bom.gov.au/fwo/IDN60901/IDN60901.95761.axf

JavaScript Object Notation format (JSON) in row-major order
http://www.bom.gov.au/fwo/IDN60901/IDN60901.95761.json